sensor_id;sensor_type;location;lat;lon;timestamp;temperature;humidity
64209;DHT22;50527;52.414;13.226;2023-08-31T00:01:46;14.90;99.90
64209;DHT22;50527;52.414;13.226;2023-08-31T00:04:13;14.90;99.90
64209;DHT22;50527;52.414;13.226;2023-08-31T00:06:43;14.90;99.90
64209;DHT22;50527;52.414;13.226;2023-08-31T00:09:11;14.90;99.90
64209;DHT22;50527;52.414;13.226;2023-08-31T00:11:36;14.90;99.90
64209;DHT22;50527;52.414;13.226;2023-08-31T00:14:02;14.90;99.90
64209;DHT22;50527;52.414;13.226;2023-08-31T00:16:28;14.90;99.90
64209;DHT22;50527;52.414;13.226;2023-08-31T00:18:53;14.90;99.90
64209;DHT22;50527;52.414;13.226;2023-08-31T00:21:20;15.00;99.90
64209;DHT22;50527;52.414;13.226;2023-08-31T00:23:46;15.00;99.90
64209;DHT22;50527;52.414;13.226;2023-08-31T00:26:11;14.90;99.90
64209;DHT22;50527;52.414;13.226;2023-08-31T00:28:37;15.00;99.90
64209;DHT22;50527;52.414;13.226;2023-08-31T00:31:04;15.00;99.90
64209;DHT22;50527;52.414;13.226;2023-08-31T00:33:29;15.00;99.90
64209;DHT22;50527;52.414;13.226;2023-08-31T00:35:58;15.00;99.90
64209;DHT22;50527;52.414;13.226;2023-08-31T00:38:26;15.00;99.90
64209;DHT22;50527;52.414;13.226;2023-08-31T00:40:52;15.00;99.90
64209;DHT22;50527;52.414;13.226;2023-08-31T00:43:19;15.00;99.90
64209;DHT22;50527;52.414;13.226;2023-08-31T00:45:45;15.00;99.90
64209;DHT22;50527;52.414;13.226;2023-08-31T00:48:15;15.00;99.90
64209;DHT22;50527;52.414;13.226;2023-08-31T00:50:42;15.00;99.90
64209;DHT22;50527;52.414;13.226;2023-08-31T00:53:08;14.90;99.90
64209;DHT22;50527;52.414;13.226;2023-08-31T00:55:33;14.90;99.90
64209;DHT22;50527;52.414;13.226;2023-08-31T00:57:59;14.90;99.90
64209;DHT22;50527;52.414;13.226;2023-08-31T01:00:42;15.00;99.90
64209;DHT22;50527;52.414;13.226;2023-08-31T01:03:19;14.90;99.90
64209;DHT22;50527;52.414;13.226;2023-08-31T01:05:54;15.00;99.90
64209;DHT22;50527;52.414;13.226;2023-08-31T01:08:40;15.00;99.90
64209;DHT22;50527;52.414;13.226;2023-08-31T01:14:01;15.10;99.90
64209;DHT22;50527;52.414;13.226;2023-08-31T01:16:30;15.20;99.90
64209;DHT22;50527;52.414;13.226;2023-08-31T01:18:57;15.20;99.90
64209;DHT22;50527;52.414;13.226;2023-08-31T01:21:38;15.20;99.90
64209;DHT22;50527;52.414;13.226;2023-08-31T01:24:06;15.30;99.90
64209;DHT22;50527;52.414;13.226;2023-08-31T01:26:32;15.30;99.90
64209;DHT22;50527;52.414;13.226;2023-08-31T01:28:58;15.30;99.90
64209;DHT22;50527;52.414;13.226;2023-08-31T01:31:24;15.30;99.90
64209;DHT22;50527;52.414;13.226;2023-08-31T01:33:49;15.30;99.90
64209;DHT22;50527;52.414;13.226;2023-08-31T01:36:29;15.40;99.90
64209;DHT22;50527;52.414;13.226;2023-08-31T01:39:14;15.30;99.90
64209;DHT22;50527;52.414;13.226;2023-08-31T01:41:44;15.20;99.90
64209;DHT22;50527;52.414;13.226;2023-08-31T01:44:15;15.10;99.90
64209;DHT22;50527;52.414;13.226;2023-08-31T01:46:45;15.20;99.90
64209;DHT22;50527;52.414;13.226;2023-08-31T01:49:11;15.10;99.90
64209;DHT22;50527;52.414;13.226;2023-08-31T01:51:36;15.00;99.90
64209;DHT22;50527;52.414;13.226;2023-08-31T01:54:02;15.00;99.90
64209;DHT22;50527;52.414;13.226;2023-08-31T01:56:28;15.00;99.90
64209;DHT22;50527;52.414;13.226;2023-08-31T01:58:54;15.00;99.90
64209;DHT22;50527;52.414;13.226;2023-08-31T02:01:19;15.00;99.90
64209;DHT22;50527;52.414;13.226;2023-08-31T02:03:45;14.90;99.90
64209;DHT22;50527;52.414;13.226;2023-08-31T02:06:11;14.90;99.90
64209;DHT22;50527;52.414;13.226;2023-08-31T02:08:36;14.90;99.90
64209;DHT22;50527;52.414;13.226;2023-08-31T02:11:02;14.90;99.90
64209;DHT22;50527;52.414;13.226;2023-08-31T02:13:28;14.80;99.90
64209;DHT22;50527;52.414;13.226;2023-08-31T02:15:53;14.80;99.90
64209;DHT22;50527;52.414;13.226;2023-08-31T02:18:19;14.70;99.90
64209;DHT22;50527;52.414;13.226;2023-08-31T02:20:44;14.70;99.90
64209;DHT22;50527;52.414;13.226;2023-08-31T02:23:10;14.70;99.90
64209;DHT22;50527;52.414;13.226;2023-08-31T02:25:37;14.60;99.90
64209;DHT22;50527;52.414;13.226;2023-08-31T02:28:03;14.60;99.90
64209;DHT22;50527;52.414;13.226;2023-08-31T02:30:28;14.60;99.90
64209;DHT22;50527;52.414;13.226;2023-08-31T02:32:54;14.60;99.90
64209;DHT22;50527;52.414;13.226;2023-08-31T02:35:19;14.60;99.90
64209;DHT22;50527;52.414;13.226;2023-08-31T02:37:45;14.60;99.90
64209;DHT22;50527;52.414;13.226;2023-08-31T02:40:11;14.60;99.90
64209;DHT22;50527;52.414;13.226;2023-08-31T02:42:37;14.60;99.90
64209;DHT22;50527;52.414;13.226;2023-08-31T02:45:02;14.50;99.90
64209;DHT22;50527;52.414;13.226;2023-08-31T02:47:28;14.50;99.90
64209;DHT22;50527;52.414;13.226;2023-08-31T02:49:53;14.50;99.90
64209;DHT22;50527;52.414;13.226;2023-08-31T02:52:19;14.50;99.90
64209;DHT22;50527;52.414;13.226;2023-08-31T02:54:45;14.40;99.90
64209;DHT22;50527;52.414;13.226;2023-08-31T02:57:10;14.50;99.90
64209;DHT22;50527;52.414;13.226;2023-08-31T02:59:35;14.40;99.90
64209;DHT22;50527;52.414;13.226;2023-08-31T03:02:04;14.40;99.90
64209;DHT22;50527;52.414;13.226;2023-08-31T03:04:29;14.40;99.90
64209;DHT22;50527;52.414;13.226;2023-08-31T03:06:56;14.40;99.90
64209;DHT22;50527;52.414;13.226;2023-08-31T03:09:21;14.30;99.90
64209;DHT22;50527;52.414;13.226;2023-08-31T03:11:46;14.30;99.90
64209;DHT22;50527;52.414;13.226;2023-08-31T03:14:12;14.30;99.90
64209;DHT22;50527;52.414;13.226;2023-08-31T03:16:37;14.30;99.90
64209;DHT22;50527;52.414;13.226;2023-08-31T03:19:03;14.30;99.90
64209;DHT22;50527;52.414;13.226;2023-08-31T03:21:29;14.30;99.90
64209;DHT22;50527;52.414;13.226;2023-08-31T03:23:54;14.30;99.90
64209;DHT22;50527;52.414;13.226;2023-08-31T03:26:20;14.30;99.90
64209;DHT22;50527;52.414;13.226;2023-08-31T03:28:45;14.30;99.90
64209;DHT22;50527;52.414;13.226;2023-08-31T03:31:11;14.30;99.90
64209;DHT22;50527;52.414;13.226;2023-08-31T03:33:36;14.30;99.90
64209;DHT22;50527;52.414;13.226;2023-08-31T03:36:05;14.30;99.90
64209;DHT22;50527;52.414;13.226;2023-08-31T03:38:33;14.30;99.90
64209;DHT22;50527;52.414;13.226;2023-08-31T03:41:03;14.30;99.90
64209;DHT22;50527;52.414;13.226;2023-08-31T03:43:28;14.40;99.90
64209;DHT22;50527;52.414;13.226;2023-08-31T03:45:55;14.40;99.90
64209;DHT22;50527;52.414;13.226;2023-08-31T03:48:21;14.40;99.90
64209;DHT22;50527;52.414;13.226;2023-08-31T03:50:51;14.30;99.90
64209;DHT22;50527;52.414;13.226;2023-08-31T03:53:17;14.30;99.90
64209;DHT22;50527;52.414;13.226;2023-08-31T03:55:42;14.20;99.90
64209;DHT22;50527;52.414;13.226;2023-08-31T03:58:08;14.20;99.90
64209;DHT22;50527;52.414;13.226;2023-08-31T04:00:33;14.20;99.90
64209;DHT22;50527;52.414;13.226;2023-08-31T04:02:59;14.20;99.90
64209;DHT22;50527;52.414;13.226;2023-08-31T04:05:24;14.20;99.90
64209;DHT22;50527;52.414;13.226;2023-08-31T04:07:50;14.20;99.90
64209;DHT22;50527;52.414;13.226;2023-08-31T04:10:15;14.20;99.90
64209;DHT22;50527;52.414;13.226;2023-08-31T04:12:41;14.20;99.90
64209;DHT22;50527;52.414;13.226;2023-08-31T04:15:08;14.20;99.90
64209;DHT22;50527;52.414;13.226;2023-08-31T04:17:34;14.20;99.90
64209;DHT22;50527;52.414;13.226;2023-08-31T04:19:59;14.20;99.90
64209;DHT22;50527;52.414;13.226;2023-08-31T04:22:26;14.20;99.90
64209;DHT22;50527;52.414;13.226;2023-08-31T04:24:52;14.20;99.90
64209;DHT22;50527;52.414;13.226;2023-08-31T04:27:18;14.20;99.90
64209;DHT22;50527;52.414;13.226;2023-08-31T04:29:43;14.20;99.90
64209;DHT22;50527;52.414;13.226;2023-08-31T04:32:09;14.30;99.90
64209;DHT22;50527;52.414;13.226;2023-08-31T04:34:34;14.30;99.90
64209;DHT22;50527;52.414;13.226;2023-08-31T04:37:00;14.30;99.90
64209;DHT22;50527;52.414;13.226;2023-08-31T04:39:26;14.30;99.90
64209;DHT22;50527;52.414;13.226;2023-08-31T04:41:52;14.20;99.90
64209;DHT22;50527;52.414;13.226;2023-08-31T04:44:17;14.20;99.90
64209;DHT22;50527;52.414;13.226;2023-08-31T04:46:43;14.20;99.90
64209;DHT22;50527;52.414;13.226;2023-08-31T04:49:08;14.20;99.90
64209;DHT22;50527;52.414;13.226;2023-08-31T04:51:36;14.20;99.90
64209;DHT22;50527;52.414;13.226;2023-08-31T04:54:06;14.20;99.90
64209;DHT22;50527;52.414;13.226;2023-08-31T04:56:33;14.20;99.90
64209;DHT22;50527;52.414;13.226;2023-08-31T04:58:59;14.30;99.90
64209;DHT22;50527;52.414;13.226;2023-08-31T05:01:24;14.20;99.90
64209;DHT22;50527;52.414;13.226;2023-08-31T05:03:50;14.20;99.90
64209;DHT22;50527;52.414;13.226;2023-08-31T05:06:16;14.20;99.90
64209;DHT22;50527;52.414;13.226;2023-08-31T05:08:41;14.20;99.90
64209;DHT22;50527;52.414;13.226;2023-08-31T05:11:07;14.30;99.90
64209;DHT22;50527;52.414;13.226;2023-08-31T05:13:33;14.30;99.90
64209;DHT22;50527;52.414;13.226;2023-08-31T05:15:59;14.30;99.90
64209;DHT22;50527;52.414;13.226;2023-08-31T05:18:24;14.30;99.90
64209;DHT22;50527;52.414;13.226;2023-08-31T05:20:49;14.30;99.90
64209;DHT22;50527;52.414;13.226;2023-08-31T05:23:15;14.30;99.90
64209;DHT22;50527;52.414;13.226;2023-08-31T05:25:44;14.30;99.90
64209;DHT22;50527;52.414;13.226;2023-08-31T05:28:10;14.30;99.90
64209;DHT22;50527;52.414;13.226;2023-08-31T05:30:35;14.30;99.90
64209;DHT22;50527;52.414;13.226;2023-08-31T05:33:01;14.30;99.90
64209;DHT22;50527;52.414;13.226;2023-08-31T05:35:27;14.40;99.90
64209;DHT22;50527;52.414;13.226;2023-08-31T05:37:52;14.30;99.90
64209;DHT22;50527;52.414;13.226;2023-08-31T05:40:18;14.30;99.90
64209;DHT22;50527;52.414;13.226;2023-08-31T05:42:44;14.40;99.90
64209;DHT22;50527;52.414;13.226;2023-08-31T05:45:09;14.30;99.90
64209;DHT22;50527;52.414;13.226;2023-08-31T05:47:35;14.30;99.90
64209;DHT22;50527;52.414;13.226;2023-08-31T05:50:01;14.30;99.90
64209;DHT22;50527;52.414;13.226;2023-08-31T05:52:27;14.30;99.90
64209;DHT22;50527;52.414;13.226;2023-08-31T05:54:52;14.40;99.90
64209;DHT22;50527;52.414;13.226;2023-08-31T05:57:19;14.40;99.90
64209;DHT22;50527;52.414;13.226;2023-08-31T05:59:44;14.40;99.90
64209;DHT22;50527;52.414;13.226;2023-08-31T06:02:10;14.50;99.90
64209;DHT22;50527;52.414;13.226;2023-08-31T06:04:36;14.50;99.90
64209;DHT22;50527;52.414;13.226;2023-08-31T06:07:02;14.50;99.90
64209;DHT22;50527;52.414;13.226;2023-08-31T06:09:27;14.50;99.90
64209;DHT22;50527;52.414;13.226;2023-08-31T06:11:52;14.50;99.90
64209;DHT22;50527;52.414;13.226;2023-08-31T06:14:18;14.60;99.90
64209;DHT22;50527;52.414;13.226;2023-08-31T06:16:44;14.70;99.90
64209;DHT22;50527;52.414;13.226;2023-08-31T06:19:10;14.70;99.90
64209;DHT22;50527;52.414;13.226;2023-08-31T06:21:35;14.70;99.90
64209;DHT22;50527;52.414;13.226;2023-08-31T06:24:01;14.80;99.90
64209;DHT22;50527;52.414;13.226;2023-08-31T06:26:26;14.80;99.90
64209;DHT22;50527;52.414;13.226;2023-08-31T06:28:52;14.80;99.90
64209;DHT22;50527;52.414;13.226;2023-08-31T06:31:17;14.80;99.90
64209;DHT22;50527;52.414;13.226;2023-08-31T06:33:43;14.80;99.90
64209;DHT22;50527;52.414;13.226;2023-08-31T06:36:08;14.80;99.90
64209;DHT22;50527;52.414;13.226;2023-08-31T06:38:33;14.80;99.90
64209;DHT22;50527;52.414;13.226;2023-08-31T06:41:02;14.80;99.90
64209;DHT22;50527;52.414;13.226;2023-08-31T06:43:28;14.70;99.90
64209;DHT22;50527;52.414;13.226;2023-08-31T06:45:53;14.70;99.90
64209;DHT22;50527;52.414;13.226;2023-08-31T06:48:19;14.70;99.90
64209;DHT22;50527;52.414;13.226;2023-08-31T06:50:44;14.70;99.90
64209;DHT22;50527;52.414;13.226;2023-08-31T06:53:10;14.70;99.90
64209;DHT22;50527;52.414;13.226;2023-08-31T06:55:35;14.70;99.90
64209;DHT22;50527;52.414;13.226;2023-08-31T06:58:02;14.70;99.90
64209;DHT22;50527;52.414;13.226;2023-08-31T07:00:29;14.70;99.90
64209;DHT22;50527;52.414;13.226;2023-08-31T07:02:55;14.60;99.90
64209;DHT22;50527;52.414;13.226;2023-08-31T07:05:24;14.60;99.90
64209;DHT22;50527;52.414;13.226;2023-08-31T07:07:52;14.80;99.90
64209;DHT22;50527;52.414;13.226;2023-08-31T07:10:18;14.70;99.90
64209;DHT22;50527;52.414;13.226;2023-08-31T07:12:44;14.70;99.90
64209;DHT22;50527;52.414;13.226;2023-08-31T07:15:09;14.80;99.90
64209;DHT22;50527;52.414;13.226;2023-08-31T07:17:35;14.90;99.90
64209;DHT22;50527;52.414;13.226;2023-08-31T07:20:00;15.00;99.90
64209;DHT22;50527;52.414;13.226;2023-08-31T07:22:26;15.00;99.90
64209;DHT22;50527;52.414;13.226;2023-08-31T07:24:51;15.20;99.90
64209;DHT22;50527;52.414;13.226;2023-08-31T07:27:17;15.20;99.90
64209;DHT22;50527;52.414;13.226;2023-08-31T07:29:42;15.20;99.90
64209;DHT22;50527;52.414;13.226;2023-08-31T07:32:08;15.30;99.90
64209;DHT22;50527;52.414;13.226;2023-08-31T07:34:33;15.40;99.90
64209;DHT22;50527;52.414;13.226;2023-08-31T07:36:59;15.50;99.90
64209;DHT22;50527;52.414;13.226;2023-08-31T07:39:25;15.40;99.50
64209;DHT22;50527;52.414;13.226;2023-08-31T07:41:52;15.40;99.60
64209;DHT22;50527;52.414;13.226;2023-08-31T07:44:19;15.40;99.70
64209;DHT22;50527;52.414;13.226;2023-08-31T07:46:44;15.40;99.00
64209;DHT22;50527;52.414;13.226;2023-08-31T07:49:10;18.20;93.60
64209;DHT22;50527;52.414;13.226;2023-08-31T07:51:35;23.10;74.50
64209;DHT22;50527;52.414;13.226;2023-08-31T07:54:01;22.70;65.90
64209;DHT22;50527;52.414;13.226;2023-08-31T07:56:28;26.70;58.50
64209;DHT22;50527;52.414;13.226;2023-08-31T07:58:54;25.90;56.50
64209;DHT22;50527;52.414;13.226;2023-08-31T08:01:19;25.30;57.40
64209;DHT22;50527;52.414;13.226;2023-08-31T08:03:45;22.80;60.80
64209;DHT22;50527;52.414;13.226;2023-08-31T08:06:10;22.40;66.80
64209;DHT22;50527;52.414;13.226;2023-08-31T08:08:36;22.20;65.00
64209;DHT22;50527;52.414;13.226;2023-08-31T08:11:01;20.80;68.20
64209;DHT22;50527;52.414;13.226;2023-08-31T08:13:28;19.80;73.80
64209;DHT22;50527;52.414;13.226;2023-08-31T08:15:53;20.70;73.60
64209;DHT22;50527;52.414;13.226;2023-08-31T08:18:19;22.70;67.00
64209;DHT22;50527;52.414;13.226;2023-08-31T08:20:47;22.90;62.70
64209;DHT22;50527;52.414;13.226;2023-08-31T08:23:13;22.80;64.20
64209;DHT22;50527;52.414;13.226;2023-08-31T08:25:39;23.00;61.60
64209;DHT22;50527;52.414;13.226;2023-08-31T08:28:04;24.50;59.20
64209;DHT22;50527;52.414;13.226;2023-08-31T08:30:30;22.80;61.60
64209;DHT22;50527;52.414;13.226;2023-08-31T08:32:55;21.20;64.50
64209;DHT22;50527;52.414;13.226;2023-08-31T08:35:21;19.90;69.70
64209;DHT22;50527;52.414;13.226;2023-08-31T08:37:46;19.40;73.90
64209;DHT22;50527;52.414;13.226;2023-08-31T08:40:11;19.00;75.50
64209;DHT22;50527;52.414;13.226;2023-08-31T08:42:43;18.80;76.00
64209;DHT22;50527;52.414;13.226;2023-08-31T08:45:14;18.60;76.20
64209;DHT22;50527;52.414;13.226;2023-08-31T08:47:44;18.30;77.60
64209;DHT22;50527;52.414;13.226;2023-08-31T08:50:13;18.00;79.50
64209;DHT22;50527;52.414;13.226;2023-08-31T08:52:39;17.90;80.70
64209;DHT22;50527;52.414;13.226;2023-08-31T08:55:05;17.90;80.40
64209;DHT22;50527;52.414;13.226;2023-08-31T08:57:31;17.70;81.70
64209;DHT22;50527;52.414;13.226;2023-08-31T08:59:58;17.50;80.70
64209;DHT22;50527;52.414;13.226;2023-08-31T09:02:24;17.50;81.90
64209;DHT22;50527;52.414;13.226;2023-08-31T09:04:49;17.50;82.10
64209;DHT22;50527;52.414;13.226;2023-08-31T09:07:22;17.60;82.40
64209;DHT22;50527;52.414;13.226;2023-08-31T09:09:53;17.90;80.70
64209;DHT22;50527;52.414;13.226;2023-08-31T09:12:20;17.80;82.00
64209;DHT22;50527;52.414;13.226;2023-08-31T09:15:03;17.50;80.60
64209;DHT22;50527;52.414;13.226;2023-08-31T09:17:41;17.70;81.10
64209;DHT22;50527;52.414;13.226;2023-08-31T09:20:07;17.50;81.40
64209;DHT22;50527;52.414;13.226;2023-08-31T09:22:34;17.60;82.10
64209;DHT22;50527;52.414;13.226;2023-08-31T09:25:00;18.30;80.10
64209;DHT22;50527;52.414;13.226;2023-08-31T09:27:25;19.50;76.80
64209;DHT22;50527;52.414;13.226;2023-08-31T09:29:54;20.20;70.50
64209;DHT22;50527;52.414;13.226;2023-08-31T09:32:20;20.40;66.50
64209;DHT22;50527;52.414;13.226;2023-08-31T09:34:46;20.60;66.20
64209;DHT22;50527;52.414;13.226;2023-08-31T09:37:12;20.90;64.00
64209;DHT22;50527;52.414;13.226;2023-08-31T09:39:41;21.50;61.50
64209;DHT22;50527;52.414;13.226;2023-08-31T09:42:07;21.70;61.00
64209;DHT22;50527;52.414;13.226;2023-08-31T09:44:32;21.90;57.80
64209;DHT22;50527;52.414;13.226;2023-08-31T09:46:58;21.60;58.20
64209;DHT22;50527;52.414;13.226;2023-08-31T09:49:25;22.10;60.70
64209;DHT22;50527;52.414;13.226;2023-08-31T09:51:51;22.90;57.90
64209;DHT22;50527;52.414;13.226;2023-08-31T09:54:18;22.50;58.20
64209;DHT22;50527;52.414;13.226;2023-08-31T09:56:45;21.70;57.80
64209;DHT22;50527;52.414;13.226;2023-08-31T09:59:15;21.00;59.60
64209;DHT22;50527;52.414;13.226;2023-08-31T10:01:42;20.70;61.00
64209;DHT22;50527;52.414;13.226;2023-08-31T10:04:08;20.70;60.40
64209;DHT22;50527;52.414;13.226;2023-08-31T10:06:39;21.20;61.20
64209;DHT22;50527;52.414;13.226;2023-08-31T10:09:05;22.80;56.70
64209;DHT22;50527;52.414;13.226;2023-08-31T10:11:31;24.30;51.70
64209;DHT22;50527;52.414;13.226;2023-08-31T10:13:58;24.50;52.50
64209;DHT22;50527;52.414;13.226;2023-08-31T10:16:25;24.10;52.90
64209;DHT22;50527;52.414;13.226;2023-08-31T10:18:52;24.50;52.00
64209;DHT22;50527;52.414;13.226;2023-08-31T10:21:19;25.10;49.50
64209;DHT22;50527;52.414;13.226;2023-08-31T10:23:46;25.10;48.20
64209;DHT22;50527;52.414;13.226;2023-08-31T10:26:11;24.10;50.30
64209;DHT22;50527;52.414;13.226;2023-08-31T10:28:41;22.50;56.90
64209;DHT22;50527;52.414;13.226;2023-08-31T10:31:17;21.40;63.50
64209;DHT22;50527;52.414;13.226;2023-08-31T10:33:57;20.20;68.70
64209;DHT22;50527;52.414;13.226;2023-08-31T10:36:41;19.30;74.30
64209;DHT22;50527;52.414;13.226;2023-08-31T10:39:14;18.50;77.60
64209;DHT22;50527;52.414;13.226;2023-08-31T10:41:41;17.80;79.90
64209;DHT22;50527;52.414;13.226;2023-08-31T10:44:23;17.40;80.30
64209;DHT22;50527;52.414;13.226;2023-08-31T10:46:50;17.20;83.70
64209;DHT22;50527;52.414;13.226;2023-08-31T10:49:18;17.00;81.20
64209;DHT22;50527;52.414;13.226;2023-08-31T10:51:45;17.00;83.50
64209;DHT22;50527;52.414;13.226;2023-08-31T10:54:12;17.00;82.90
64209;DHT22;50527;52.414;13.226;2023-08-31T10:59:24;17.60;82.00
64209;DHT22;50527;52.414;13.226;2023-08-31T11:01:57;18.10;81.00
64209;DHT22;50527;52.414;13.226;2023-08-31T11:04:27;18.70;79.00
64209;DHT22;50527;52.414;13.226;2023-08-31T11:09:37;19.60;72.70
64209;DHT22;50527;52.414;13.226;2023-08-31T11:12:03;19.70;72.50
64209;DHT22;50527;52.414;13.226;2023-08-31T11:14:29;19.90;69.60
64209;DHT22;50527;52.414;13.226;2023-08-31T11:16:55;19.70;65.30
64209;DHT22;50527;52.414;13.226;2023-08-31T11:19:21;19.80;66.60
64209;DHT22;50527;52.414;13.226;2023-08-31T11:21:46;19.90;68.90
64209;DHT22;50527;52.414;13.226;2023-08-31T11:24:12;19.80;69.50
64209;DHT22;50527;52.414;13.226;2023-08-31T11:26:37;19.90;69.40
64209;DHT22;50527;52.414;13.226;2023-08-31T11:29:06;20.00;69.20
64209;DHT22;50527;52.414;13.226;2023-08-31T11:31:33;19.70;70.60
64209;DHT22;50527;52.414;13.226;2023-08-31T11:33:58;19.40;71.40
64209;DHT22;50527;52.414;13.226;2023-08-31T11:36:24;19.20;70.30
64209;DHT22;50527;52.414;13.226;2023-08-31T11:38:50;19.00;71.40
64209;DHT22;50527;52.414;13.226;2023-08-31T11:41:16;19.00;71.60
64209;DHT22;50527;52.414;13.226;2023-08-31T11:43:42;18.90;70.00
64209;DHT22;50527;52.414;13.226;2023-08-31T11:46:08;18.90;74.40
64209;DHT22;50527;52.414;13.226;2023-08-31T11:48:34;19.10;69.60
64209;DHT22;50527;52.414;13.226;2023-08-31T11:51:00;19.20;69.10
64209;DHT22;50527;52.414;13.226;2023-08-31T11:53:26;19.30;66.10
64209;DHT22;50527;52.414;13.226;2023-08-31T11:55:53;19.20;68.60
64209;DHT22;50527;52.414;13.226;2023-08-31T11:58:19;18.90;71.00
64209;DHT22;50527;52.414;13.226;2023-08-31T12:00:46;18.50;73.60
64209;DHT22;50527;52.414;13.226;2023-08-31T12:03:19;18.20;73.70
64209;DHT22;50527;52.414;13.226;2023-08-31T12:05:46;17.80;78.20
64209;DHT22;50527;52.414;13.226;2023-08-31T12:08:13;17.60;80.70
64209;DHT22;50527;52.414;13.226;2023-08-31T12:10:42;17.80;82.40
64209;DHT22;50527;52.414;13.226;2023-08-31T12:13:08;18.00;82.20
64209;DHT22;50527;52.414;13.226;2023-08-31T12:15:34;18.10;84.30
64209;DHT22;50527;52.414;13.226;2023-08-31T12:18:07;18.00;83.80
64209;DHT22;50527;52.414;13.226;2023-08-31T12:20:33;17.90;83.60
64209;DHT22;50527;52.414;13.226;2023-08-31T12:23:07;17.70;82.80
64209;DHT22;50527;52.414;13.226;2023-08-31T12:25:35;17.50;83.30
64209;DHT22;50527;52.414;13.226;2023-08-31T12:28:00;17.40;86.50
64209;DHT22;50527;52.414;13.226;2023-08-31T12:30:26;17.20;87.60
64209;DHT22;50527;52.414;13.226;2023-08-31T12:32:51;17.20;87.10
64209;DHT22;50527;52.414;13.226;2023-08-31T12:35:17;16.90;89.30
64209;DHT22;50527;52.414;13.226;2023-08-31T12:37:43;16.90;88.70
64209;DHT22;50527;52.414;13.226;2023-08-31T12:40:09;16.80;85.90
64209;DHT22;50527;52.414;13.226;2023-08-31T12:42:35;16.70;85.40
64209;DHT22;50527;52.414;13.226;2023-08-31T12:45:01;16.80;85.30
64209;DHT22;50527;52.414;13.226;2023-08-31T12:47:27;17.10;88.20
64209;DHT22;50527;52.414;13.226;2023-08-31T12:49:52;17.30;87.40
64209;DHT22;50527;52.414;13.226;2023-08-31T12:52:17;17.30;86.80
64209;DHT22;50527;52.414;13.226;2023-08-31T12:54:43;17.50;87.50
64209;DHT22;50527;52.414;13.226;2023-08-31T12:57:08;17.80;86.10
64209;DHT22;50527;52.414;13.226;2023-08-31T12:59:34;18.10;83.70
64209;DHT22;50527;52.414;13.226;2023-08-31T13:01:59;18.40;82.80
64209;DHT22;50527;52.414;13.226;2023-08-31T13:04:25;18.60;80.40
64209;DHT22;50527;52.414;13.226;2023-08-31T13:06:50;18.60;76.50
64209;DHT22;50527;52.414;13.226;2023-08-31T13:09:16;18.70;76.80
64209;DHT22;50527;52.414;13.226;2023-08-31T13:11:41;18.70;74.70
64209;DHT22;50527;52.414;13.226;2023-08-31T13:14:07;18.60;74.60
64209;DHT22;50527;52.414;13.226;2023-08-31T13:16:32;18.70;74.70
64209;DHT22;50527;52.414;13.226;2023-08-31T13:18:58;18.60;74.50
64209;DHT22;50527;52.414;13.226;2023-08-31T13:21:24;18.30;72.90
64209;DHT22;50527;52.414;13.226;2023-08-31T13:23:49;18.20;74.00
64209;DHT22;50527;52.414;13.226;2023-08-31T13:26:15;18.00;76.00
64209;DHT22;50527;52.414;13.226;2023-08-31T13:28:40;17.90;73.90
64209;DHT22;50527;52.414;13.226;2023-08-31T13:31:06;17.70;74.50
64209;DHT22;50527;52.414;13.226;2023-08-31T13:33:32;17.70;75.50
64209;DHT22;50527;52.414;13.226;2023-08-31T13:35:57;17.70;75.20
64209;DHT22;50527;52.414;13.226;2023-08-31T13:38:26;17.50;77.10
64209;DHT22;50527;52.414;13.226;2023-08-31T13:40:55;17.40;79.40
64209;DHT22;50527;52.414;13.226;2023-08-31T13:43:24;17.20;81.70
64209;DHT22;50527;52.414;13.226;2023-08-31T13:45:50;16.80;84.50
64209;DHT22;50527;52.414;13.226;2023-08-31T13:48:15;16.60;90.90
64209;DHT22;50527;52.414;13.226;2023-08-31T13:50:41;16.30;91.00
64209;DHT22;50527;52.414;13.226;2023-08-31T13:53:07;15.90;92.40
64209;DHT22;50527;52.414;13.226;2023-08-31T13:55:32;15.60;92.50
64209;DHT22;50527;52.414;13.226;2023-08-31T13:58:04;15.40;96.80
64209;DHT22;50527;52.414;13.226;2023-08-31T14:00:31;15.30;98.20
64209;DHT22;50527;52.414;13.226;2023-08-31T14:02:56;15.30;99.90
64209;DHT22;50527;52.414;13.226;2023-08-31T14:05:23;15.40;99.90
64209;DHT22;50527;52.414;13.226;2023-08-31T14:07:50;15.40;99.40
64209;DHT22;50527;52.414;13.226;2023-08-31T14:10:15;15.50;99.50
64209;DHT22;50527;52.414;13.226;2023-08-31T14:12:41;15.60;98.70
64209;DHT22;50527;52.414;13.226;2023-08-31T14:15:07;15.60;97.80
64209;DHT22;50527;52.414;13.226;2023-08-31T14:17:32;15.60;97.60
64209;DHT22;50527;52.414;13.226;2023-08-31T14:20:01;15.80;98.40
64209;DHT22;50527;52.414;13.226;2023-08-31T14:22:31;16.00;98.90
64209;DHT22;50527;52.414;13.226;2023-08-31T14:24:57;16.20;96.50
64209;DHT22;50527;52.414;13.226;2023-08-31T14:27:22;16.30;95.80
64209;DHT22;50527;52.414;13.226;2023-08-31T14:29:50;16.30;95.20
64209;DHT22;50527;52.414;13.226;2023-08-31T14:32:16;16.50;94.20
64209;DHT22;50527;52.414;13.226;2023-08-31T14:34:41;16.50;94.40
64209;DHT22;50527;52.414;13.226;2023-08-31T14:37:07;16.60;91.30
64209;DHT22;50527;52.414;13.226;2023-08-31T14:39:32;16.60;92.10
64209;DHT22;50527;52.414;13.226;2023-08-31T14:41:58;16.60;93.00
64209;DHT22;50527;52.414;13.226;2023-08-31T14:44:25;16.60;92.70
64209;DHT22;50527;52.414;13.226;2023-08-31T14:46:50;16.50;92.70
64209;DHT22;50527;52.414;13.226;2023-08-31T14:49:15;16.70;91.40
64209;DHT22;50527;52.414;13.226;2023-08-31T14:51:41;16.80;90.90
64209;DHT22;50527;52.414;13.226;2023-08-31T14:54:07;16.80;88.00
64209;DHT22;50527;52.414;13.226;2023-08-31T14:56:32;16.70;88.50
64209;DHT22;50527;52.414;13.226;2023-08-31T14:58:58;16.70;89.10
64209;DHT22;50527;52.414;13.226;2023-08-31T15:01:23;16.60;90.80
64209;DHT22;50527;52.414;13.226;2023-08-31T15:03:50;16.50;91.30
64209;DHT22;50527;52.414;13.226;2023-08-31T15:06:15;16.40;91.80
64209;DHT22;50527;52.414;13.226;2023-08-31T15:08:41;16.40;92.90
64209;DHT22;50527;52.414;13.226;2023-08-31T15:11:07;16.40;92.20
64209;DHT22;50527;52.414;13.226;2023-08-31T15:13:33;16.40;92.30
64209;DHT22;50527;52.414;13.226;2023-08-31T15:15:58;16.40;93.10
64209;DHT22;50527;52.414;13.226;2023-08-31T15:18:27;16.50;92.20
64209;DHT22;50527;52.414;13.226;2023-08-31T15:20:53;16.60;92.80